Terminal Aerodrome Forecast
Issued by NWS Duluth, MN

Home | Current Version | Previous Version | Text Only | Print | Product List | Glossary On
Versions: 1 2 3 4 5 6 7 8 9 10 11 12 13 14 15 16 17
193
FTUS43 KDLH 231517 AAA
TAFINL
TAF AMD
KINL 231517Z 2315/2412 VRB03KT P6SM SCT012 OVC045
      TEMPO 2315/2317 BKN011 OVC045
     FM232000 18005KT P6SM BKN016
     FM240300 18007KT P6SM BKN040
     FM240500 20008KT P6SM BKN070 WS020/25036KT=

USA.gov is the U.S. government's official web portal to all federal, state and local government web resources and services.